Time;durP1;ratioP1;P1;durP2;ratioP2;P2;SDS_P1;SDS_P2;PMS_P1;PMS_P2;Temp;Humidity;BMP_temperature;BMP_pressure;BME280_temperature;BME280_humidity;BME280_pressure;Samples;Min_cycle;Max_cycle;Signal;HPM_P1;HPM_P2
2024/04/13 00:00:36;;;;;;;6.72;4.57;;;;;;;18.99;53.13;102629.94;5278160;26;112883;-80
2024/04/13 00:03:04;;;;;;;7.20;4.80;;;;;;;18.95;53.60;102629.25;5249568;26;111852;-80
2024/04/13 00:05:31;;;;;;;6.05;4.53;;;;;;;18.94;53.69;102637.38;5254694;26;121879;-80
2024/04/13 00:07:59;;;;;;;7.68;4.82;;;;;;;18.90;53.62;102635.78;5285957;26;122422;-80
2024/04/13 00:10:26;;;;;;;7.05;4.70;;;;;;;18.86;53.46;102641.31;5281882;26;113639;-81
2024/04/13 00:12:53;;;;;;;7.40;4.82;;;;;;;18.83;53.61;102636.09;5253440;26;114743;-80
2024/04/13 00:15:20;;;;;;;8.27;4.95;;;;;;;18.80;53.75;102636.25;5247498;26;123379;-80
2024/04/13 00:17:48;;;;;;;9.98;5.22;;;;;;;18.78;53.90;102632.75;5292282;26;122894;-81
2024/04/13 00:20:15;;;;;;;8.07;5.40;;;;;;;18.77;53.88;102636.38;5252488;26;112717;-81
2024/04/13 00:22:43;;;;;;;6.85;5.00;;;;;;;18.75;54.06;102638.28;5291696;26;112433;-80
2024/04/13 00:25:10;;;;;;;7.22;5.43;;;;;;;18.72;53.77;102641.09;5266958;26;122727;-81
2024/04/13 00:27:38;;;;;;;9.48;5.60;;;;;;;18.69;54.04;102633.22;5260643;26;122645;-79
2024/04/13 00:30:06;;;;;;;7.53;5.43;;;;;;;18.67;54.46;102629.75;5284794;26;112442;-80
2024/04/13 00:32:35;;;;;;;8.90;5.22;;;;;;;18.66;54.53;102633.38;5265327;26;114285;-80
2024/04/13 00:35:05;;;;;;;8.13;5.18;;;;;;;18.65;54.14;102631.66;5239578;26;123938;-80
2024/04/13 00:37:40;;;;;;;8.20;5.32;;;;;;;18.63;54.38;102628.19;5288745;26;121856;-80
2024/04/13 00:40:07;;;;;;;11.52;5.57;;;;;;;18.60;54.75;102612.22;5257515;26;112931;-80
2024/04/13 00:42:36;;;;;;;7.28;5.10;;;;;;;18.59;54.45;102615.84;5274993;26;112682;-80
2024/04/13 00:45:03;;;;;;;6.88;4.95;;;;;;;18.60;54.44;102617.59;5259723;26;121637;-79
2024/04/13 00:47:34;;;;;;;7.97;5.45;;;;;;;18.59;54.42;102605.09;5293457;26;123310;-80
2024/04/13 00:50:10;;;;;;;7.47;5.40;;;;;;;18.58;54.58;102614.13;5276913;26;112954;-81
2024/04/13 00:52:43;;;;;;;7.53;5.35;;;;;;;18.56;54.70;102616.00;5257862;26;112434;-81
2024/04/13 00:55:11;;;;;;;9.13;5.40;;;;;;;18.55;54.89;102619.63;5236930;26;122259;-81
2024/04/13 00:57:39;;;;;;;7.60;5.43;;;;;;;18.55;54.81;102619.63;5269784;26;122834;-80
2024/04/13 01:00:12;;;;;;;9.95;5.35;;;;;;;18.55;55.01;102611.56;5265022;26;113600;-81
2024/04/13 01:02:42;;;;;;;7.20;5.22;;;;;;;18.54;55.11;102612.53;5275502;26;113005;-79
2024/04/13 01:05:14;;;;;;;8.68;5.20;;;;;;;18.54;55.21;102608.03;5257407;26;119857;-79
2024/04/13 01:07:46;;;;;;;9.32;5.10;;;;;;;18.54;55.19;102604.47;5262807;26;122999;-79
2024/04/13 01:10:16;;;;;;;8.45;5.25;;;;;;;18.53;55.37;102605.41;5274298;26;112566;-80
2024/04/13 01:12:44;;;;;;;9.32;5.10;;;;;;;18.54;55.13;102607.16;5287872;26;111978;-80
2024/04/13 01:15:12;;;;;;;8.05;5.43;;;;;;;18.52;55.14;102603.69;5257353;26;122415;-80
2024/04/13 01:17:39;;;;;;;10.27;5.55;;;;;;;18.51;55.06;102601.94;5282412;26;122249;-79
2024/04/13 01:20:08;;;;;;;7.78;5.47;;;;;;;18.52;54.91;102614.44;5263678;26;112365;-80
2024/04/13 01:22:47;;;;;;;7.70;5.70;;;;;;;18.51;55.25;102601.94;5274788;26;112593;-79
2024/04/13 01:25:20;;;;;;;9.95;5.25;;;;;;;18.49;55.32;102594.81;5275729;26;122061;-78
2024/04/13 01:27:48;;;;;;;6.68;4.75;;;;;;;18.48;55.10;102593.09;5247061;26;122936;-79
2024/04/13 01:30:17;;;;;;;9.93;5.13;;;;;;;18.45;55.28;102582.50;5238208;26;112765;-80
2024/04/13 01:32:44;;;;;;;7.03;5.10;;;;;;;18.44;55.39;102580.81;5284517;26;112535;-81
2024/04/13 01:35:15;;;;;;;11.35;5.45;;;;;;;18.43;55.37;102579.03;5274012;26;123322;-80
2024/04/13 01:37:45;;;;;;;7.70;4.93;;;;;;;18.41;55.68;102570.22;5288180;26;120310;-81
2024/04/13 01:40:13;;;;;;;7.50;5.18;;;;;;;18.40;55.36;102568.50;5246087;26;112600;-81
2024/04/13 01:42:45;;;;;;;9.80;5.38;;;;;;;18.38;55.51;102565.00;5266649;26;112463;-80
2024/04/13 01:45:13;;;;;;;11.27;5.53;;;;;;;18.37;55.67;102568.63;5287596;26;121130;-81
2024/04/13 01:47:41;;;;;;;10.95;6.03;;;;;;;18.36;55.68;102577.63;5274095;26;122387;-82
2024/04/13 01:50:10;;;;;;;9.55;6.32;;;;;;;18.35;55.66;102570.53;5277639;26;113788;-81
2024/04/13 01:52:38;;;;;;;11.77;6.05;;;;;;;18.34;56.00;102574.13;5256805;26;112169;-81
2024/04/13 01:55:06;;;;;;;8.88;5.97;;;;;;;18.33;55.86;102567.06;5254365;26;121673;-80
2024/04/13 01:57:33;;;;;;;11.82;7.30;;;;;;;18.32;56.27;102565.31;5288312;26;122014;-79
2024/04/13 02:00:01;;;;;;;12.88;7.25;;;;;;;18.32;56.21;102565.31;5251940;26;113437;-79
2024/04/13 02:02:30;;;;;;;10.80;7.60;;;;;;;18.32;55.94;102569.81;5283447;26;112761;-80
2024/04/13 02:04:58;;;;;;;12.38;7.90;;;;;;;18.29;55.91;102570.84;5252921;26;121407;-81
2024/04/13 02:07:29;;;;;;;11.70;8.18;;;;;;;18.29;56.02;102565.47;5265295;26;123218;-81
2024/04/13 02:09:56;;;;;;;12.82;7.20;;;;;;;18.29;56.13;102560.97;5252910;26;112236;-80
2024/04/13 02:12:23;;;;;;;12.15;7.85;;;;;;;18.28;56.18;102558.38;5283307;26;112571;-80
2024/04/13 02:14:51;;;;;;;10.73;8.02;;;;;;;18.27;56.49;102556.59;5264037;26;122495;-80
2024/04/13 02:17:18;;;;;;;12.80;8.00;;;;;;;18.25;56.30;102555.81;5266122;26;123042;-81
2024/04/13 02:19:46;;;;;;;17.45;7.93;;;;;;;18.23;56.49;102555.03;5244606;26;111802;-81
2024/04/13 02:22:15;;;;;;;13.20;7.68;;;;;;;18.23;56.53;102555.03;5294790;26;111010;-81
2024/04/13 02:24:46;;;;;;;11.40;7.57;;;;;;;18.21;56.67;102551.56;5285624;26;122579;-81
2024/04/13 02:27:13;;;;;;;13.57;7.72;;;;;;;18.21;56.61;102552.41;5285398;26;122103;-81
2024/04/13 02:29:43;;;;;;;12.02;7.45;;;;;;;18.22;56.75;102559.53;5291425;26;112542;-78
2024/04/13 02:32:11;;;;;;;10.93;7.80;;;;;;;18.22;56.49;102558.69;5257582;26;111614;-80
2024/04/13 02:34:39;;;;;;;11.50;7.30;;;;;;;18.20;56.81;102560.56;5272800;26;122520;-82
2024/04/13 02:37:07;;;;;;;11.38;7.07;;;;;;;18.18;56.83;102555.28;5292913;26;121966;-80
2024/04/13 02:39:34;;;;;;;12.98;7.05;;;;;;;18.17;56.84;102563.41;5251568;26;113366;-80
2024/04/13 02:42:02;;;;;;;11.20;7.10;;;;;;;18.15;56.85;102554.56;5273959;26;113297;-80
2024/04/13 02:44:29;;;;;;;10.07;7.00;;;;;;;18.14;56.88;102555.50;5249057;26;125944;-80
2024/04/13 02:46:57;;;;;;;12.90;7.10;;;;;;;18.12;56.60;102552.03;5281991;26;123046;-80
2024/04/13 02:49:24;;;;;;;9.02;6.82;;;;;;;18.11;56.98;102550.31;5277838;26;112869;-81
2024/04/13 02:51:51;;;;;;;11.13;7.18;;;;;;;18.09;56.63;102548.53;5278278;26;113754;-80
2024/04/13 02:54:19;;;;;;;10.00;7.13;;;;;;;18.08;56.99;102556.66;5293167;26;123685;-80
2024/04/13 02:56:46;;;;;;;10.43;7.15;;;;;;;18.04;56.83;102549.72;5249942;26;121974;-80
2024/04/13 02:59:13;;;;;;;11.55;7.28;;;;;;;18.04;56.82;102555.09;5283295;26;113176;-80
2024/04/13 03:01:41;;;;;;;11.63;7.45;;;;;;;18.00;56.82;102554.38;5290026;26;113110;-81
2024/04/13 03:04:08;;;;;;;10.63;7.05;;;;;;;17.99;56.90;102562.47;5250743;26;122471;-79
2024/04/13 03:06:36;;;;;;;11.02;7.45;;;;;;;17.94;57.08;102554.66;5256438;26;121681;-80
2024/04/13 03:09:04;;;;;;;13.55;7.82;;;;;;;17.92;57.13;102561.91;5286325;26;112850;-81
2024/04/13 03:11:32;;;;;;;11.10;7.82;;;;;;;17.90;57.13;102563.81;5295554;26;111447;-79
2024/04/13 03:14:00;;;;;;;16.40;7.97;;;;;;;17.87;56.99;102558.59;5277831;26;122193;-80
2024/04/13 03:16:27;;;;;;;12.10;7.65;;;;;;;17.84;57.18;102564.09;5282883;26;122539;-78
2024/04/13 03:18:55;;;;;;;10.95;7.47;;;;;;;17.80;57.15;102557.09;5306154;26;111398;-80
2024/04/13 03:21:22;;;;;;;13.77;7.65;;;;;;;17.78;57.07;102556.31;5263807;26;112501;-79
2024/04/13 03:23:50;;;;;;;12.73;7.03;;;;;;;17.76;57.36;102556.38;5280597;26;123062;-80
2024/04/13 03:26:17;;;;;;;12.93;7.25;;;;;;;17.75;57.16;102565.38;5283151;26;122380;-81
2024/04/13 03:28:44;;;;;;;10.85;7.75;;;;;;;17.73;57.40;102561.91;5287356;26;113565;-81
2024/04/13 03:31:12;;;;;;;13.15;7.30;;;;;;;17.71;57.19;102559.28;5280196;26;113361;-79
2024/04/13 03:33:39;;;;;;;12.35;7.18;;;;;;;17.70;57.17;102551.31;5269671;26;120746;-80
2024/04/13 03:36:07;;;;;;;12.82;7.13;;;;;;;17.68;57.20;102558.56;5270137;26;121061;-79
2024/04/13 03:38:34;;;;;;;12.75;7.35;;;;;;;17.64;57.10;102549.81;5292057;26;113105;-78
2024/04/13 03:41:08;;;;;;;12.80;7.38;;;;;;;17.60;57.33;102561.63;5296070;26;111271;-80
2024/04/13 03:43:37;;;;;;;12.13;7.50;;;;;;;17.58;57.29;102568.00;5277544;26;122319;-78
2024/04/13 03:46:06;;;;;;;11.57;7.38;;;;;;;17.55;57.04;102569.00;5280068;26;121167;-80
2024/04/13 03:48:33;;;;;;;13.18;7.95;;;;;;;17.50;57.20;102554.97;5279225;26;112723;-79
2024/04/13 03:51:01;;;;;;;12.30;7.90;;;;;;;17.50;57.18;102565.69;5285874;26;112666;-79
2024/04/13 03:53:29;;;;;;;15.52;7.63;;;;;;;17.45;57.04;102556.97;5288887;26;122277;-81
2024/04/13 03:55:57;;;;;;;14.05;7.60;;;;;;;17.43;57.42;102566.91;5283452;26;121981;-79
2024/04/13 03:58:24;;;;;;;11.77;8.88;;;;;;;17.38;57.52;102566.25;5294529;26;113251;-79
2024/04/13 04:00:51;;;;;;;14.25;8.00;;;;;;;17.35;57.82;102561.00;5310103;26;113118;-79
2024/04/13 04:03:19;;;;;;;10.75;7.60;;;;;;;17.31;57.58;102555.81;5271067;26;119695;-80
2024/04/13 04:05:48;;;;;;;12.15;7.55;;;;;;;17.28;57.50;102561.31;5258677;26;121668;-79
2024/04/13 04:08:16;;;;;;;14.68;8.48;;;;;;;17.25;57.58;102561.47;5290919;26;113131;-80
2024/04/13 04:10:43;;;;;;;14.98;8.00;;;;;;;17.23;57.85;102562.44;5290345;26;112658;-79
2024/04/13 04:13:11;;;;;;;11.73;7.68;;;;;;;17.20;57.71;102562.63;5298119;26;123692;-81
2024/04/13 04:15:38;;;;;;;13.93;7.70;;;;;;;17.18;57.61;102568.03;5289255;26;121988;-79
2024/04/13 04:18:05;;;;;;;13.23;8.15;;;;;;;17.16;57.70;102561.88;5273061;26;113261;-80
2024/04/13 04:20:33;;;;;;;10.20;7.85;;;;;;;17.14;57.97;102561.09;5279640;26;114676;-81
2024/04/13 04:23:01;;;;;;;12.95;8.20;;;;;;;17.12;58.01;102565.59;5273390;26;121473;-80
2024/04/13 04:25:28;;;;;;;13.57;8.07;;;;;;;17.10;58.33;102562.13;5281635;26;121734;-80
2024/04/13 04:27:56;;;;;;;13.35;8.68;;;;;;;17.07;58.25;102556.94;5278278;26;113095;-79
2024/04/13 04:30:23;;;;;;;11.68;8.27;;;;;;;17.03;57.98;102555.34;5260655;26;112528;-79
2024/04/13 04:32:50;;;;;;;15.15;8.80;;;;;;;17.00;58.48;102555.47;5291111;26;121447;-79
2024/04/13 04:35:18;;;;;;;13.20;8.50;;;;;;;16.95;57.99;102552.13;5277663;26;122711;-81
2024/04/13 04:37:46;;;;;;;12.25;8.20;;;;;;;16.91;58.16;102557.63;5274349;26;111924;-79
2024/04/13 04:40:14;;;;;;;13.98;8.75;;;;;;;16.89;58.22;102548.75;5271991;26;112692;-79
2024/04/13 04:42:41;;;;;;;14.82;8.15;;;;;;;16.87;58.30;102550.66;5279597;26;122682;-79
2024/04/13 04:45:08;;;;;;;13.80;8.65;;;;;;;16.84;58.48;102556.16;5267002;26;122774;-79
2024/04/13 04:47:36;;;;;;;13.95;8.30;;;;;;;16.82;58.15;102557.09;5280028;26;111803;-78
2024/04/13 04:50:04;;;;;;;15.98;8.13;;;;;;;16.78;58.44;102551.00;5274465;26;113368;-79
2024/04/13 04:52:32;;;;;;;20.10;8.85;;;;;;;16.78;58.69;102551.00;5258588;26;123266;-79
2024/04/13 04:55:01;;;;;;;12.23;8.52;;;;;;;16.75;58.40;102545.81;5279601;26;122205;-80
2024/04/13 04:57:29;;;;;;;11.60;8.27;;;;;;;16.73;58.50;102553.03;5277771;26;112345;-79
2024/04/13 04:59:57;;;;;;;14.43;8.95;;;;;;;16.70;58.60;102542.47;5253876;26;113320;-80
2024/04/13 05:02:24;;;;;;;12.80;8.07;;;;;;;16.69;58.89;102551.44;5284292;26;121145;-79
2024/04/13 05:04:52;;;;;;;13.15;8.90;;;;;;;16.67;58.72;102548.84;5257028;26;121263;-80
2024/04/13 05:07:19;;;;;;;12.60;8.88;;;;;;;16.67;58.94;102553.28;5237216;26;112207;-80
2024/04/13 05:09:47;;;;;;;17.38;9.75;;;;;;;16.68;59.04;102555.03;5252754;26;113404;-79
2024/04/13 05:12:14;;;;;;;13.75;8.90;;;;;;;16.67;59.15;102547.94;5304212;26;122441;-82
2024/04/13 05:14:42;;;;;;;16.33;10.32;;;;;;;16.68;58.79;102549.69;5265017;26;122003;-80
2024/04/13 05:17:09;;;;;;;16.38;10.32;;;;;;;16.68;59.38;102547.00;5282901;26;111322;-81
2024/04/13 05:19:38;;;;;;;18.25;11.35;;;;;;;16.69;59.51;102551.44;5289699;26;113381;-80
2024/04/13 05:22:06;;;;;;;18.48;11.50;;;;;;;16.70;59.54;102547.81;5279179;26;122420;-80
2024/04/13 05:24:33;;;;;;;18.52;10.52;;;;;;;16.72;59.46;102548.63;5282095;26;122827;-82
2024/04/13 05:27:05;;;;;;;18.17;11.23;;;;;;;16.74;59.42;102547.63;5267089;26;113148;-80
2024/04/13 05:29:35;;;;;;;13.98;10.13;;;;;;;16.74;59.52;102541.38;5280535;26;112429;-80
2024/04/13 05:32:04;;;;;;;15.65;9.48;;;;;;;16.76;59.49;102536.84;5280606;26;121307;-80
2024/04/13 05:34:32;;;;;;;18.52;9.77;;;;;;;16.78;60.28;102540.31;5285509;26;122495;-81
2024/04/13 05:36:59;;;;;;;17.48;9.60;;;;;;;16.81;59.80;102533.97;5243946;26;110176;-82
2024/04/13 05:39:28;;;;;;;18.63;9.95;;;;;;;16.83;60.24;102538.34;5263355;26;111994;-80
2024/04/13 05:41:56;;;;;;;16.85;9.55;;;;;;;16.87;59.94;102531.06;5264817;26;120291;-81
2024/04/13 05:44:23;;;;;;;16.17;10.05;;;;;;;16.90;59.94;102537.13;5302152;26;121476;-81
2024/04/13 05:46:51;;;;;;;17.73;9.57;;;;;;;16.93;60.53;102539.69;5259684;26;113553;-80
2024/04/13 05:49:18;;;;;;;17.25;10.15;;;;;;;16.96;59.96;102537.81;5259692;26;110987;-82
2024/04/13 05:51:48;;;;;;;17.25;10.40;;;;;;;16.99;60.17;102537.66;5260202;26;121907;-81
2024/04/13 05:54:15;;;;;;;15.05;9.88;;;;;;;17.04;60.07;102541.00;5268813;26;122358;-80
2024/04/13 05:56:43;;;;;;;19.35;10.65;;;;;;;17.07;60.26;102540.88;5272806;26;112707;-81
2024/04/13 05:59:11;;;;;;;13.95;10.18;;;;;;;17.12;60.60;102541.50;5282336;26;113857;-82
2024/04/13 06:01:38;;;;;;;15.80;10.00;;;;;;;17.14;60.66;102536.97;5266174;26;122724;-81
2024/04/13 06:04:05;;;;;;;18.30;10.15;;;;;;;17.19;60.61;102540.28;5260102;26;120360;-82
2024/04/13 06:06:33;;;;;;;18.65;10.18;;;;;;;17.25;60.57;102533.78;5262182;26;111563;-82
2024/04/13 06:09:00;;;;;;;16.63;9.95;;;;;;;17.31;60.57;102529.03;5282574;26;112039;-82
2024/04/13 06:11:28;;;;;;;19.50;10.40;;;;;;;17.38;60.79;102534.09;5262760;26;121542;-82
2024/04/13 06:13:55;;;;;;;12.88;9.45;;;;;;;17.42;60.54;102535.69;5293436;26;121949;-82
2024/04/13 06:16:23;;;;;;;17.33;10.63;;;;;;;17.47;60.70;102533.66;5255679;26;112133;-83
2024/04/13 06:18:52;;;;;;;18.80;9.90;;;;;;;17.51;60.54;102530.75;5283444;26;111303;-82
2024/04/13 06:21:19;;;;;;;15.48;10.35;;;;;;;17.58;60.64;102528.66;5282346;26;121499;-82
2024/04/13 06:23:47;;;;;;;15.32;9.80;;;;;;;17.67;60.66;102535.41;5262769;26;121411;-82
2024/04/13 06:26:14;;;;;;;14.90;9.88;;;;;;;17.73;60.68;102534.25;5278582;26;110643;-82
2024/04/13 06:28:41;;;;;;;15.43;10.25;;;;;;;17.78;60.71;102524.16;5258523;26;112733;-82
2024/04/13 06:31:09;;;;;;;16.02;9.57;;;;;;;17.85;60.59;102528.31;5256955;26;120328;-82
2024/04/13 06:33:36;;;;;;;15.57;9.43;;;;;;;17.91;60.74;102517.28;5259745;26;121920;-82
2024/04/13 06:36:04;;;;;;;16.23;9.13;;;;;;;17.96;60.56;102525.97;5273166;26;111756;-82
2024/04/13 06:38:31;;;;;;;13.93;9.05;;;;;;;18.04;60.49;102526.44;5244392;26;112184;-81
2024/04/13 06:40:59;;;;;;;15.77;9.50;;;;;;;18.13;60.69;102526.97;5248527;26;123190;-80
2024/04/13 06:43:26;;;;;;;13.40;9.27;;;;;;;18.22;60.77;102521.13;5248037;26;122896;-83
2024/04/13 06:45:54;;;;;;;13.02;9.02;;;;;;;18.31;60.47;102530.50;5274242;26;113922;-83
2024/04/13 06:48:21;;;;;;;14.73;9.43;;;;;;;18.38;60.41;102516.69;5282264;26;113816;-82
2024/04/13 06:50:48;;;;;;;13.50;8.88;;;;;;;18.46;60.61;102525.25;5262636;26;119965;-83
2024/04/13 06:53:16;;;;;;;14.50;9.25;;;;;;;18.57;60.57;102515.75;5234763;26;120718;-82
2024/04/13 06:55:45;;;;;;;11.40;8.65;;;;;;;18.68;60.40;102519.63;5267083;26;112517;-81
2024/04/13 06:58:12;;;;;;;14.50;9.10;;;;;;;18.77;60.26;102512.91;5250612;26;112394;-82
2024/04/13 07:00:39;;;;;;;12.32;8.75;;;;;;;18.88;60.00;102519.56;5258083;26;122424;-84
2024/04/13 07:03:07;;;;;;;15.00;8.52;;;;;;;18.95;60.12;102510.19;5277332;26;122230;-82
2024/04/13 07:05:34;;;;;;;12.40;8.63;;;;;;;19.03;60.07;102508.00;5282463;26;112690;-82
2024/04/13 07:08:02;;;;;;;13.23;8.35;;;;;;;19.12;59.77;102510.19;5254346;26;112299;-82
2024/04/13 07:10:29;;;;;;;11.80;8.30;;;;;;;19.22;59.64;102497.97;5280494;26;123121;-80
2024/04/13 07:12:57;;;;;;;11.32;8.77;;;;;;;19.30;59.71;102496.69;5262178;26;122104;-80
2024/04/13 07:15:24;;;;;;;12.05;8.80;;;;;;;19.38;59.52;102486.34;5284775;26;112867;-80
2024/04/13 07:17:52;;;;;;;14.18;8.43;;;;;;;19.47;59.57;102480.47;5288198;26;111694;-81
2024/04/13 07:20:19;;;;;;;11.63;8.35;;;;;;;19.55;59.39;102483.59;5282393;26;123081;-79
2024/04/13 07:22:47;;;;;;;13.55;8.40;;;;;;;19.61;58.96;102494.00;5258671;26;120624;-81
2024/04/13 07:25:14;;;;;;;12.23;8.20;;;;;;;19.69;59.01;102495.38;5264519;26;112210;-78
2024/04/13 07:27:41;;;;;;;13.77;8.68;;;;;;;19.79;58.96;102491.22;5291955;26;113438;-80
2024/04/13 07:30:09;;;;;;;12.52;8.07;;;;;;;19.88;58.95;102490.69;5267962;26;121192;-81
2024/04/13 07:32:36;;;;;;;12.75;8.55;;;;;;;20.00;58.83;102495.38;5290191;26;123093;-80
2024/04/13 07:35:04;;;;;;;13.27;8.27;;;;;;;20.14;59.13;102499.06;5289617;26;112929;-80
2024/04/13 07:37:31;;;;;;;13.70;8.38;;;;;;;20.26;58.67;102490.25;5287357;26;113802;-80
2024/04/13 07:39:58;;;;;;;11.82;8.15;;;;;;;20.37;58.55;102479.72;5278913;26;122472;-79
2024/04/13 07:42:26;;;;;;;14.13;8.73;;;;;;;20.50;58.36;102481.69;5268057;26;122458;-82
2024/04/13 07:44:54;;;;;;;15.52;7.53;;;;;;;20.65;58.69;102490.69;5275661;26;112636;-82
2024/04/13 07:47:21;;;;;;;13.32;8.20;;;;;;;20.80;58.35;102477.13;5280737;26;110934;-81
2024/04/13 07:49:49;;;;;;;11.13;7.75;;;;;;;20.96;57.96;102476.16;5293682;26;122070;-81
2024/04/13 07:52:16;;;;;;;15.00;7.82;;;;;;;21.06;57.61;102473.72;5261781;26;120872;-81
2024/04/13 07:54:45;;;;;;;13.02;8.13;;;;;;;21.13;57.69;102475.94;5276166;26;112680;-80
2024/04/13 07:57:12;;;;;;;14.68;7.88;;;;;;;21.24;57.35;102477.09;5285594;26;111969;-82
2024/04/13 07:59:40;;;;;;;12.32;7.80;;;;;;;21.33;57.30;102473.81;5308784;26;121552;-82
2024/04/13 08:02:08;;;;;;;13.55;7.95;;;;;;;21.42;57.14;102467.81;5302479;26;120922;-82
2024/04/13 08:04:35;;;;;;;11.50;8.05;;;;;;;21.52;57.00;102460.88;5274949;26;113872;-82
2024/04/13 08:07:07;;;;;;;13.65;7.78;;;;;;;21.64;56.77;102464.59;5266883;26;110241;-82
2024/04/13 08:09:36;;;;;;;13.32;8.07;;;;;;;21.74;56.53;102464.88;5279303;26;120030;-82
2024/04/13 08:12:04;;;;;;;11.02;6.38;;;;;;;21.82;56.51;102462.50;5277259;26;121176;-82
2024/04/13 08:14:31;;;;;;;13.50;6.80;;;;;;;21.86;56.04;102453.25;5262481;26;110174;-81
2024/04/13 08:16:58;;;;;;;12.73;6.90;;;;;;;21.91;56.11;102461.91;5298922;26;113012;-81
2024/04/13 08:19:26;;;;;;;9.85;6.30;;;;;;;21.97;56.09;102461.47;5291901;26;122040;-81
2024/04/13 08:21:53;;;;;;;13.43;6.68;;;;;;;22.05;56.01;102452.00;5265796;26;121563;-81
2024/04/13 08:24:21;;;;;;;11.10;7.07;;;;;;;22.15;56.20;102453.09;5256680;26;112709;-80
2024/04/13 08:26:48;;;;;;;11.23;7.28;;;;;;;22.28;55.93;102461.25;5271158;26;113635;-82
2024/04/13 08:29:15;;;;;;;9.75;6.45;;;;;;;22.33;55.48;102457.25;5269965;26;121248;-82
2024/04/13 08:31:43;;;;;;;10.30;6.75;;;;;;;22.38;55.30;102461.47;5289133;26;122480;-81
2024/04/13 08:34:13;;;;;;;11.07;6.38;;;;;;;22.43;55.36;102456.63;5276936;26;112863;-82
2024/04/13 08:36:40;;;;;;;8.38;5.93;;;;;;;22.51;54.88;102459.66;5270243;26;111798;-81
2024/04/13 08:39:12;;;;;;;10.90;6.75;;;;;;;22.57;55.08;102459.22;5242536;26;120927;-82
2024/04/13 08:42:03;;;;;;;9.10;6.40;;;;;;;22.64;54.84;102454.25;5285407;26;122413;-82
2024/04/13 08:44:31;;;;;;;9.85;6.80;;;;;;;22.74;54.53;102450.78;5249265;26;111451;-81
2024/04/13 08:47:00;;;;;;;8.68;6.28;;;;;;;22.82;54.82;102435.88;5276546;26;111963;-82
2024/04/13 08:49:29;;;;;;;7.70;5.35;;;;;;;22.89;54.63;102438.00;5262403;26;121466;-82
2024/04/13 08:51:59;;;;;;;9.00;5.00;;;;;;;22.98;54.29;102447.31;5257362;26;121074;-81
2024/04/13 08:54:30;;;;;;;8.27;5.35;;;;;;;23.05;53.92;102435.09;5240478;26;113168;-82
2024/04/13 08:57:00;;;;;;;8.30;5.38;;;;;;;23.13;53.88;102435.41;5272704;26;113204;-82
2024/04/13 08:59:28;;;;;;;8.27;5.32;;;;;;;23.23;54.16;102430.19;5275386;26;121633;-82
2024/04/13 09:01:56;;;;;;;8.52;4.63;;;;;;;23.34;54.09;102421.28;5282975;26;122502;-82
2024/04/13 09:04:23;;;;;;;7.93;4.90;;;;;;;23.38;53.66;102421.94;5256877;26;112262;-82
2024/04/13 09:06:52;;;;;;;7.70;5.13;;;;;;;23.44;53.61;102427.72;5284741;26;112453;-82
2024/04/13 09:09:20;;;;;;;10.35;5.63;;;;;;;23.52;53.01;102424.44;5265120;26;122713;-82
2024/04/13 09:11:47;;;;;;;8.27;5.38;;;;;;;23.60;53.21;102415.75;5281495;26;121512;-82
2024/04/13 09:14:15;;;;;;;7.80;4.55;;;;;;;23.67;52.82;102417.00;5261370;26;114359;-81
2024/04/13 09:16:45;;;;;;;6.30;4.82;;;;;;;23.71;52.57;102413.09;5274825;26;113887;-82
2024/04/13 09:19:12;;;;;;;8.90;5.60;;;;;;;23.76;52.24;102416.31;5272227;26;122524;-82
2024/04/13 09:21:41;;;;;;;7.35;5.20;;;;;;;23.80;51.91;102401.59;5286752;26;122836;-81
2024/04/13 09:24:10;;;;;;;8.95;4.57;;;;;;;23.85;52.25;102394.00;5291990;26;112633;-82
2024/04/13 09:26:47;;;;;;;6.35;4.50;;;;;;;23.94;51.68;102396.97;5284260;26;112686;-82
2024/04/13 09:29:27;;;;;;;9.15;4.45;;;;;;;24.02;52.12;102399.97;5256600;26;121039;-82
2024/04/13 09:31:55;;;;;;;11.18;4.70;;;;;;;24.13;51.71;102397.28;5281814;26;120218;-81
2024/04/13 09:34:23;;;;;;;9.10;4.50;;;;;;;24.23;51.44;102394.72;5259824;26;112352;-81
2024/04/13 09:36:50;;;;;;;8.93;4.70;;;;;;;24.34;51.64;102388.47;5254582;26;111480;-81
2024/04/13 09:39:22;;;;;;;8.95;4.45;;;;;;;24.44;51.02;102384.03;5260826;26;119421;-81
2024/04/13 09:41:51;;;;;;;8.40;4.00;;;;;;;24.54;50.73;102385.03;5277609;26;122713;-81
2024/04/13 09:44:26;;;;;;;8.77;4.47;;;;;;;24.58;50.98;102375.69;5253100;26;110467;-81
2024/04/13 09:46:54;;;;;;;5.70;4.05;;;;;;;24.64;50.75;102375.19;5246932;26;113112;-79
2024/04/13 09:49:21;;;;;;;4.50;3.33;;;;;;;24.72;50.93;102369.16;5269570;26;122121;-81
2024/04/13 09:51:50;;;;;;;6.88;3.45;;;;;;;24.81;50.18;102359.41;5262941;26;122655;-81
2024/04/13 09:54:19;;;;;;;6.30;3.65;;;;;;;24.89;49.85;102361.50;5274721;26;111842;-81
2024/04/13 09:56:47;;;;;;;6.78;4.20;;;;;;;24.94;49.70;102364.66;5298352;26;112244;-81
2024/04/13 09:59:20;;;;;;;7.30;3.95;;;;;;;24.99;49.84;102347.03;5304350;26;123256;-81
2024/04/13 10:01:48;;;;;;;7.00;3.33;;;;;;;25.06;49.40;102342.84;5278698;26;121160;-80
2024/04/13 10:04:16;;;;;;;5.60;3.90;;;;;;;25.18;49.83;102346.38;5298586;26;111733;-81
2024/04/13 10:06:47;;;;;;;7.97;4.07;;;;;;;25.28;49.31;102335.66;5296097;26;113454;-80
2024/04/13 10:09:18;;;;;;;6.40;3.50;;;;;;;25.35;49.01;102342.28;5258034;26;121149;-80
2024/04/13 10:11:51;;;;;;;8.40;3.60;;;;;;;25.48;48.72;102330.41;5238410;26;121651;-80
2024/04/13 10:14:23;;;;;;;5.93;3.42;;;;;;;25.60;48.25;102332.06;5293412;26;111620;-80
2024/04/13 10:16:53;;;;;;;5.35;3.05;;;;;;;25.72;48.39;102338.28;5270367;26;113618;-80
2024/04/13 10:19:21;;;;;;;5.70;3.17;;;;;;;25.81;48.04;102337.50;5285003;26;122156;-81
2024/04/13 10:21:55;;;;;;;6.47;3.25;;;;;;;25.90;47.56;102330.41;5257512;26;119906;-81
2024/04/13 10:24:23;;;;;;;6.65;3.35;;;;;;;25.96;47.66;102329.91;5257580;26;112951;-81
2024/04/13 10:26:51;;;;;;;4.45;2.72;;;;;;;26.00;47.14;102315.94;5286865;26;113051;-81
2024/04/13 10:29:27;;;;;;;6.38;3.03;;;;;;;26.03;46.40;102306.63;5276570;26;122259;-80
2024/04/13 10:31:55;;;;;;;4.60;2.60;;;;;;;26.11;46.59;102312.28;5283600;26;122110;-80
2024/04/13 10:34:25;;;;;;;4.68;2.53;;;;;;;26.20;46.02;102306.03;5288076;26;111442;-81
2024/04/13 10:36:58;;;;;;;6.40;2.78;;;;;;;26.25;45.93;102297.47;5279986;26;112098;-82
2024/04/13 10:39:25;;;;;;;3.95;2.28;;;;;;;26.29;46.10;102304.34;5295186;26;121515;-81
2024/04/13 10:41:53;;;;;;;4.25;2.30;;;;;;;26.34;45.50;102306.66;5283214;26;123018;-81
2024/04/13 10:44:25;;;;;;;5.57;2.63;;;;;;;26.35;46.11;102297.50;5267073;26;111572;-80
2024/04/13 10:46:52;;;;;;;3.88;2.70;;;;;;;26.42;45.90;102293.25;5277286;26;110313;-81
2024/04/13 10:49:21;;;;;;;4.78;2.50;;;;;;;26.52;45.98;102288.72;5282519;26;121937;-81
2024/04/13 10:51:48;;;;;;;6.28;2.60;;;;;;;26.60;45.55;102280.75;5259711;26;122265;-81
2024/04/13 10:54:16;;;;;;;5.43;2.38;;;;;;;26.69;45.03;102278.16;5283837;26;114646;-81
2024/04/13 10:56:44;;;;;;;5.13;2.50;;;;;;;26.74;45.41;102270.47;5279490;26;113640;-82
2024/04/13 10:59:12;;;;;;;5.47;2.35;;;;;;;26.80;45.60;102269.91;5259559;26;120243;-83
2024/04/13 11:01:42;;;;;;;3.92;2.22;;;;;;;26.86;44.34;102268.47;5263462;26;121368;-81
2024/04/13 11:04:13;;;;;;;4.45;2.50;;;;;;;26.88;44.69;102266.47;5274079;26;112732;-80
2024/04/13 11:06:41;;;;;;;3.67;2.28;;;;;;;26.85;44.36;102267.63;5255449;26;111682;-81
2024/04/13 11:09:10;;;;;;;3.83;2.20;;;;;;;26.85;44.35;102267.63;5262636;26;120120;-81
2024/04/13 11:11:37;;;;;;;5.20;2.15;;;;;;;26.87;44.23;102260.19;5285360;26;122514;-81
2024/04/13 11:14:05;;;;;;;5.88;2.13;;;;;;;26.91;44.02;102263.47;5296168;26;111713;-81
2024/04/13 11:16:32;;;;;;;6.47;2.05;;;;;;;26.93;43.94;102256.88;5264846;26;111788;-81